Hermiston, OR

5:04 AM PST on December 07, 2016 (GMT -0800)
Hermiston Municipal | | Change Station
Active Advisory: Winter Storm Watch

Elev 640 ft 45.83 °N, 119.26 °W | Updated 11 minutes ago

Overcast
Overcast
18 °F
Feels Like 11 °F
N
5
Wind Variable Wind from ESE

Today
High -- | Low -- °F
--% Chance of Precip.
Yesterday
High -- | Low -- °F
Precip. -- in
Pressure 30.46 in
Visibility 10.0 miles
Clouds Overcast 7000 ft
Windchill 11 °F
Dew Point 13 °F
Humidity 81%
Rainfall 0.00 in
Snow Depth Not available.
7:25 AM 4:12 PM
First Quarter, 52% visible
METAR KHRI 071253Z AUTO 11004KT 10SM OVC070 M08/M11 A3043 RMK AO2 SLP313 T10781106
Pressure 30.46 in
Visibility 10.0 miles
Clouds Overcast 7000 ft
Windchill 11 °F
Dew Point 13 °F
Humidity 81%
Rainfall 0.00 in
Snow Depth Not available.
7:25 AM 4:12 PM
First Quarter, 52% visible
METAR KHRI 071253Z AUTO 11004KT 10SM OVC070 M08/M11 A3043 RMK AO2 SLP313 T10781106

10-Day Weather Forecast

Almanac

Astronomy

Dec. 07, 2016 Rise Set
Actual Time
Civil Twilight
Nautical Twilight
Astronomical Twilight
Moon
Length of Visible Light
Length of Day
Tomorrow will be .
, % of the Moon is Illuminated

Today's Extremes

State Highs State Lows

Community

WunderPhotos

Upload Photos

1,956,112 photos uploaded!

WunderBlog® & News

Nearby

Air Quality

  Air Quality AQ Index Pollutant
Not available.

Snow Depth

Station Depth Elevation

Earthquake Activity

City Distance Mag. Time & Date
Minimum magnitude displayed is 2.5.

Coastal Water Temperatures

Place Temperature

Stations

Nearby Weather Stations

Station Location Temp. Windchill Dew Point Humidity Wind Precip. Elev Updated Type
                   

Watches & Warnings

Winter Storm Watch
Issued: 4:55 AM PST Dec. 7, 2016 – National Weather Service

... Winter Storm Watch remains in effect from Thursday morning
through Friday morning...

* snow accumulations... 3 to 6 inches.

* Ice accumulations... around a trace .

* Locations... Pendleton... Pilot Rock... Boardman... Hermiston...
Ione... Heppner... Condon... Fossil.

* Timing... snow will develop Thursday morning then increase in
intensity Thursday afternoon and Thursday night. In addition...
   a wintry mix of snow... sleet and freezing rain is expected
Thursday night and Friday morning

* impacts... area roadways will be snow covered and slick.

* Winds... north 5 to 15 mph with gusts up to 25 mph.

* Web page: for a detailed view of the hazard area visit
http://www.Wrh.NOAA.Gov/map/?Wfo=pdt.

Precautionary/preparedness actions...

A Winter Storm Watch means there is a potential for significant
snow... sleet... or ice accumulations that may impact travel.
Continue to monitor the latest forecasts.